sensor_id;sensor_type;location;lat;lon;timestamp;P1;durP1;ratioP1;P2;durP2;ratioP2
29240;SDS011;16268;49.880;8.648;2022-12-29T00:02:10;4.23;;;1.90;;
29240;SDS011;16268;49.880;8.648;2022-12-29T00:04:36;5.25;;;2.25;;
29240;SDS011;16268;49.880;8.648;2022-12-29T00:07:02;6.35;;;2.28;;
29240;SDS011;16268;49.880;8.648;2022-12-29T00:09:29;4.55;;;2.00;;
29240;SDS011;16268;49.880;8.648;2022-12-29T00:11:55;4.95;;;2.00;;
29240;SDS011;16268;49.880;8.648;2022-12-29T00:14:21;4.63;;;1.92;;
29240;SDS011;16268;49.880;8.648;2022-12-29T00:17:05;4.85;;;2.00;;
29240;SDS011;16268;49.880;8.648;2022-12-29T00:19:31;4.82;;;2.20;;
29240;SDS011;16268;49.880;8.648;2022-12-29T00:22:15;6.32;;;2.00;;
29240;SDS011;16268;49.880;8.648;2022-12-29T00:24:59;7.03;;;2.20;;
29240;SDS011;16268;49.880;8.648;2022-12-29T00:27:33;3.88;;;1.70;;
29240;SDS011;16268;49.880;8.648;2022-12-29T00:30:21;7.28;;;2.13;;
29240;SDS011;16268;49.880;8.648;2022-12-29T00:36:04;5.78;;;1.80;;
29240;SDS011;16268;49.880;8.648;2022-12-29T00:38:33;4.45;;;1.90;;
29240;SDS011;16268;49.880;8.648;2022-12-29T00:41:20;4.93;;;1.98;;
29240;SDS011;16268;49.880;8.648;2022-12-29T00:44:05;4.95;;;1.95;;
29240;SDS011;16268;49.880;8.648;2022-12-29T00:46:35;6.55;;;2.22;;
29240;SDS011;16268;49.880;8.648;2022-12-29T00:49:02;6.20;;;2.10;;
29240;SDS011;16268;49.880;8.648;2022-12-29T00:51:47;6.07;;;2.20;;
29240;SDS011;16268;49.880;8.648;2022-12-29T00:54:14;6.90;;;2.22;;
29240;SDS011;16268;49.880;8.648;2022-12-29T00:56:40;5.43;;;1.92;;
29240;SDS011;16268;49.880;8.648;2022-12-29T00:59:07;5.65;;;1.95;;
29240;SDS011;16268;49.880;8.648;2022-12-29T01:01:35;5.15;;;1.80;;
29240;SDS011;16268;49.880;8.648;2022-12-29T01:04:01;6.28;;;1.92;;
29240;SDS011;16268;49.880;8.648;2022-12-29T01:06:27;7.38;;;2.10;;
29240;SDS011;16268;49.880;8.648;2022-12-29T01:08:53;3.78;;;1.65;;
29240;SDS011;16268;49.880;8.648;2022-12-29T01:11:37;4.53;;;1.92;;
29240;SDS011;16268;49.880;8.648;2022-12-29T01:14:03;5.40;;;1.67;;
29240;SDS011;16268;49.880;8.648;2022-12-29T01:16:29;5.55;;;1.63;;
29240;SDS011;16268;49.880;8.648;2022-12-29T01:18:55;4.72;;;1.40;;
29240;SDS011;16268;49.880;8.648;2022-12-29T01:21:20;4.60;;;1.73;;
29240;SDS011;16268;49.880;8.648;2022-12-29T01:23:46;5.88;;;1.45;;
29240;SDS011;16268;49.880;8.648;2022-12-29T01:26:12;6.22;;;1.45;;
29240;SDS011;16268;49.880;8.648;2022-12-29T01:28:40;3.53;;;1.30;;
29240;SDS011;16268;49.880;8.648;2022-12-29T01:31:06;3.97;;;1.15;;
29240;SDS011;16268;49.880;8.648;2022-12-29T01:33:36;3.90;;;1.15;;
29240;SDS011;16268;49.880;8.648;2022-12-29T01:36:03;3.50;;;1.17;;
29240;SDS011;16268;49.880;8.648;2022-12-29T01:38:29;5.40;;;1.30;;
29240;SDS011;16268;49.880;8.648;2022-12-29T01:40:56;3.65;;;1.35;;
29240;SDS011;16268;49.880;8.648;2022-12-29T01:43:21;3.60;;;1.17;;
29240;SDS011;16268;49.880;8.648;2022-12-29T01:48:49;2.75;;;1.02;;
29240;SDS011;16268;49.880;8.648;2022-12-29T01:51:17;2.45;;;1.10;;
29240;SDS011;16268;49.880;8.648;2022-12-29T01:53:44;4.35;;;0.90;;
29240;SDS011;16268;49.880;8.648;2022-12-29T01:56:10;1.48;;;0.90;;
29240;SDS011;16268;49.880;8.648;2022-12-29T01:58:41;3.85;;;0.80;;
29240;SDS011;16268;49.880;8.648;2022-12-29T02:01:10;1.48;;;0.90;;
29240;SDS011;16268;49.880;8.648;2022-12-29T02:03:36;2.72;;;0.80;;
29240;SDS011;16268;49.880;8.648;2022-12-29T02:06:04;3.38;;;0.90;;
29240;SDS011;16268;49.880;8.648;2022-12-29T02:08:41;3.17;;;1.00;;
29240;SDS011;16268;49.880;8.648;2022-12-29T02:11:11;3.05;;;0.80;;
29240;SDS011;16268;49.880;8.648;2022-12-29T02:13:37;3.10;;;0.80;;
29240;SDS011;16268;49.880;8.648;2022-12-29T02:18:55;2.13;;;0.77;;
29240;SDS011;16268;49.880;8.648;2022-12-29T02:27:48;1.55;;;0.70;;
29240;SDS011;16268;49.880;8.648;2022-12-29T02:33:08;2.45;;;0.90;;
29240;SDS011;16268;49.880;8.648;2022-12-29T02:36:00;2.60;;;0.88;;
29240;SDS011;16268;49.880;8.648;2022-12-29T02:41:10;2.97;;;0.85;;
29240;SDS011;16268;49.880;8.648;2022-12-29T02:46:20;2.20;;;0.90;;
29240;SDS011;16268;49.880;8.648;2022-12-29T02:48:55;2.38;;;0.80;;
29240;SDS011;16268;49.880;8.648;2022-12-29T02:51:33;2.35;;;0.90;;
29240;SDS011;16268;49.880;8.648;2022-12-29T02:54:08;2.35;;;0.80;;
29240;SDS011;16268;49.880;8.648;2022-12-29T02:56:53;3.45;;;0.90;;
29240;SDS011;16268;49.880;8.648;2022-12-29T02:59:18;4.13;;;1.10;;
29240;SDS011;16268;49.880;8.648;2022-12-29T03:02:02;2.25;;;0.90;;
29240;SDS011;16268;49.880;8.648;2022-12-29T03:10:08;2.13;;;0.88;;
29240;SDS011;16268;49.880;8.648;2022-12-29T03:15:58;2.13;;;0.90;;
29240;SDS011;16268;49.880;8.648;2022-12-29T03:21:08;1.88;;;0.85;;
29240;SDS011;16268;49.880;8.648;2022-12-29T03:23:44;3.25;;;0.80;;
29240;SDS011;16268;49.880;8.648;2022-12-29T03:26:16;1.95;;;0.85;;
29240;SDS011;16268;49.880;8.648;2022-12-29T03:28:46;2.13;;;0.93;;
29240;SDS011;16268;49.880;8.648;2022-12-29T03:31:16;3.55;;;0.90;;
29240;SDS011;16268;49.880;8.648;2022-12-29T03:33:43;4.43;;;1.00;;
29240;SDS011;16268;49.880;8.648;2022-12-29T03:36:12;2.22;;;0.90;;
29240;SDS011;16268;49.880;8.648;2022-12-29T03:39:05;3.28;;;0.90;;
29240;SDS011;16268;49.880;8.648;2022-12-29T03:41:33;2.55;;;1.00;;
29240;SDS011;16268;49.880;8.648;2022-12-29T03:44:00;3.45;;;1.00;;
29240;SDS011;16268;49.880;8.648;2022-12-29T03:46:25;3.53;;;1.00;;
29240;SDS011;16268;49.880;8.648;2022-12-29T03:48:51;2.92;;;0.90;;
29240;SDS011;16268;49.880;8.648;2022-12-29T03:51:16;3.50;;;1.10;;
29240;SDS011;16268;49.880;8.648;2022-12-29T03:53:42;3.30;;;0.95;;
29240;SDS011;16268;49.880;8.648;2022-12-29T03:56:07;3.83;;;1.10;;
29240;SDS011;16268;49.880;8.648;2022-12-29T03:58:33;2.45;;;1.02;;
29240;SDS011;16268;49.880;8.648;2022-12-29T04:00:59;4.53;;;1.08;;
29240;SDS011;16268;49.880;8.648;2022-12-29T04:03:24;2.65;;;1.10;;
29240;SDS011;16268;49.880;8.648;2022-12-29T04:05:50;3.20;;;1.20;;
29240;SDS011;16268;49.880;8.648;2022-12-29T04:08:18;3.58;;;1.00;;
29240;SDS011;16268;49.880;8.648;2022-12-29T04:10:44;2.38;;;0.90;;
29240;SDS011;16268;49.880;8.648;2022-12-29T04:13:09;4.50;;;1.00;;
29240;SDS011;16268;49.880;8.648;2022-12-29T04:15:35;3.00;;;1.00;;
29240;SDS011;16268;49.880;8.648;2022-12-29T04:18:01;4.53;;;1.20;;
29240;SDS011;16268;49.880;8.648;2022-12-29T04:20:27;5.07;;;1.20;;
29240;SDS011;16268;49.880;8.648;2022-12-29T04:23:11;3.15;;;1.13;;
29240;SDS011;16268;49.880;8.648;2022-12-29T04:25:36;4.00;;;1.10;;
29240;SDS011;16268;49.880;8.648;2022-12-29T04:28:02;3.28;;;1.08;;
29240;SDS011;16268;49.880;8.648;2022-12-29T04:30:28;3.08;;;1.15;;
29240;SDS011;16268;49.880;8.648;2022-12-29T04:32:53;2.17;;;0.95;;
29240;SDS011;16268;49.880;8.648;2022-12-29T04:35:19;3.65;;;1.20;;
29240;SDS011;16268;49.880;8.648;2022-12-29T04:37:45;2.28;;;0.82;;
29240;SDS011;16268;49.880;8.648;2022-12-29T04:40:10;3.25;;;1.00;;
29240;SDS011;16268;49.880;8.648;2022-12-29T04:42:36;4.55;;;1.15;;
29240;SDS011;16268;49.880;8.648;2022-12-29T04:45:02;3.95;;;1.17;;
29240;SDS011;16268;49.880;8.648;2022-12-29T04:47:28;3.90;;;1.10;;
29240;SDS011;16268;49.880;8.648;2022-12-29T04:49:56;3.63;;;1.15;;
29240;SDS011;16268;49.880;8.648;2022-12-29T04:52:22;3.53;;;1.25;;
29240;SDS011;16268;49.880;8.648;2022-12-29T04:54:47;3.47;;;1.10;;
29240;SDS011;16268;49.880;8.648;2022-12-29T04:57:13;3.40;;;1.35;;
29240;SDS011;16268;49.880;8.648;2022-12-29T04:59:38;3.50;;;1.20;;
29240;SDS011;16268;49.880;8.648;2022-12-29T05:02:04;3.40;;;1.15;;
29240;SDS011;16268;49.880;8.648;2022-12-29T05:04:29;2.30;;;1.10;;
29240;SDS011;16268;49.880;8.648;2022-12-29T05:06:56;3.50;;;1.08;;
29240;SDS011;16268;49.880;8.648;2022-12-29T05:09:22;3.22;;;1.08;;
29240;SDS011;16268;49.880;8.648;2022-12-29T05:11:49;3.60;;;1.02;;
29240;SDS011;16268;49.880;8.648;2022-12-29T05:14:14;5.63;;;1.30;;
29240;SDS011;16268;49.880;8.648;2022-12-29T05:16:40;4.72;;;1.20;;
29240;SDS011;16268;49.880;8.648;2022-12-29T05:19:05;2.90;;;1.15;;
29240;SDS011;16268;49.880;8.648;2022-12-29T05:21:31;2.63;;;1.00;;
29240;SDS011;16268;49.880;8.648;2022-12-29T05:23:56;2.28;;;0.90;;
29240;SDS011;16268;49.880;8.648;2022-12-29T05:26:22;5.07;;;1.05;;
29240;SDS011;16268;49.880;8.648;2022-12-29T05:28:47;5.40;;;1.20;;
29240;SDS011;16268;49.880;8.648;2022-12-29T05:31:13;3.20;;;1.00;;
29240;SDS011;16268;49.880;8.648;2022-12-29T05:33:38;5.18;;;1.00;;
29240;SDS011;16268;49.880;8.648;2022-12-29T05:36:07;4.05;;;1.17;;
29240;SDS011;16268;49.880;8.648;2022-12-29T05:38:34;3.72;;;1.15;;
29240;SDS011;16268;49.880;8.648;2022-12-29T05:41:00;3.67;;;1.05;;
29240;SDS011;16268;49.880;8.648;2022-12-29T05:43:25;3.65;;;1.10;;
29240;SDS011;16268;49.880;8.648;2022-12-29T05:45:51;4.43;;;1.20;;
29240;SDS011;16268;49.880;8.648;2022-12-29T05:48:17;5.20;;;1.10;;
29240;SDS011;16268;49.880;8.648;2022-12-29T05:50:46;3.40;;;1.13;;
29240;SDS011;16268;49.880;8.648;2022-12-29T05:53:13;2.50;;;0.95;;
29240;SDS011;16268;49.880;8.648;2022-12-29T05:55:38;3.83;;;1.10;;
29240;SDS011;16268;49.880;8.648;2022-12-29T05:58:04;2.25;;;1.00;;
29240;SDS011;16268;49.880;8.648;2022-12-29T06:00:30;3.05;;;1.00;;
29240;SDS011;16268;49.880;8.648;2022-12-29T06:02:55;5.43;;;1.30;;
29240;SDS011;16268;49.880;8.648;2022-12-29T06:05:21;3.67;;;1.20;;
29240;SDS011;16268;49.880;8.648;2022-12-29T06:07:46;2.60;;;1.17;;
29240;SDS011;16268;49.880;8.648;2022-12-29T06:10:12;4.43;;;1.10;;
29240;SDS011;16268;49.880;8.648;2022-12-29T06:12:38;4.45;;;1.30;;
29240;SDS011;16268;49.880;8.648;2022-12-29T06:15:03;5.45;;;1.10;;
29240;SDS011;16268;49.880;8.648;2022-12-29T06:17:29;2.50;;;1.17;;
29240;SDS011;16268;49.880;8.648;2022-12-29T06:19:55;4.32;;;1.10;;
29240;SDS011;16268;49.880;8.648;2022-12-29T06:22:20;5.07;;;1.20;;
29240;SDS011;16268;49.880;8.648;2022-12-29T06:24:46;3.35;;;1.10;;
29240;SDS011;16268;49.880;8.648;2022-12-29T06:27:11;4.20;;;1.23;;
29240;SDS011;16268;49.880;8.648;2022-12-29T06:29:38;3.55;;;0.98;;
29240;SDS011;16268;49.880;8.648;2022-12-29T06:32:05;2.50;;;0.90;;
29240;SDS011;16268;49.880;8.648;2022-12-29T06:34:31;3.88;;;1.10;;
29240;SDS011;16268;49.880;8.648;2022-12-29T06:39:38;3.25;;;1.20;;
29240;SDS011;16268;49.880;8.648;2022-12-29T06:42:03;5.53;;;1.20;;
29240;SDS011;16268;49.880;8.648;2022-12-29T06:44:29;5.57;;;1.30;;
29240;SDS011;16268;49.880;8.648;2022-12-29T06:46:55;3.15;;;1.30;;
29240;SDS011;16268;49.880;8.648;2022-12-29T06:49:20;3.17;;;1.17;;
29240;SDS011;16268;49.880;8.648;2022-12-29T06:51:46;2.83;;;1.08;;
29240;SDS011;16268;49.880;8.648;2022-12-29T06:54:12;3.05;;;1.35;;
29240;SDS011;16268;49.880;8.648;2022-12-29T06:56:37;3.25;;;1.35;;
29240;SDS011;16268;49.880;8.648;2022-12-29T06:59:03;3.42;;;1.35;;
29240;SDS011;16268;49.880;8.648;2022-12-29T07:01:29;4.95;;;1.50;;
29240;SDS011;16268;49.880;8.648;2022-12-29T07:03:55;4.70;;;1.48;;
29240;SDS011;16268;49.880;8.648;2022-12-29T07:06:20;3.20;;;1.20;;
29240;SDS011;16268;49.880;8.648;2022-12-29T07:08:46;4.18;;;1.15;;
29240;SDS011;16268;49.880;8.648;2022-12-29T07:11:12;4.82;;;1.45;;
29240;SDS011;16268;49.880;8.648;2022-12-29T07:13:37;4.82;;;1.60;;
29240;SDS011;16268;49.880;8.648;2022-12-29T07:16:07;3.85;;;1.27;;
29240;SDS011;16268;49.880;8.648;2022-12-29T07:18:33;4.50;;;1.05;;
29240;SDS011;16268;49.880;8.648;2022-12-29T07:20:59;4.35;;;1.40;;
29240;SDS011;16268;49.880;8.648;2022-12-29T07:23:25;5.18;;;1.65;;
29240;SDS011;16268;49.880;8.648;2022-12-29T07:25:58;4.68;;;1.63;;
29240;SDS011;16268;49.880;8.648;2022-12-29T07:28:25;5.22;;;1.60;;
29240;SDS011;16268;49.880;8.648;2022-12-29T07:30:50;4.20;;;1.50;;
29240;SDS011;16268;49.880;8.648;2022-12-29T07:33:16;4.55;;;1.58;;
29240;SDS011;16268;49.880;8.648;2022-12-29T07:35:41;6.43;;;1.55;;
29240;SDS011;16268;49.880;8.648;2022-12-29T07:38:07;4.53;;;1.40;;
29240;SDS011;16268;49.880;8.648;2022-12-29T07:40:32;5.35;;;1.65;;
29240;SDS011;16268;49.880;8.648;2022-12-29T07:42:58;3.85;;;1.17;;
29240;SDS011;16268;49.880;8.648;2022-12-29T07:45:23;7.45;;;1.67;;
29240;SDS011;16268;49.880;8.648;2022-12-29T07:47:49;3.65;;;1.10;;
29240;SDS011;16268;49.880;8.648;2022-12-29T07:50:15;3.90;;;1.38;;
29240;SDS011;16268;49.880;8.648;2022-12-29T07:52:41;4.28;;;1.38;;
29240;SDS011;16268;49.880;8.648;2022-12-29T07:55:06;5.05;;;1.30;;
29240;SDS011;16268;49.880;8.648;2022-12-29T07:57:32;5.45;;;1.40;;
29240;SDS011;16268;49.880;8.648;2022-12-29T07:59:58;3.88;;;1.38;;
29240;SDS011;16268;49.880;8.648;2022-12-29T08:02:24;4.40;;;1.50;;
29240;SDS011;16268;49.880;8.648;2022-12-29T08:04:51;3.72;;;1.70;;
29240;SDS011;16268;49.880;8.648;2022-12-29T08:07:16;4.50;;;1.67;;
29240;SDS011;16268;49.880;8.648;2022-12-29T08:09:42;4.65;;;1.60;;
29240;SDS011;16268;49.880;8.648;2022-12-29T08:12:08;4.20;;;1.50;;
29240;SDS011;16268;49.880;8.648;2022-12-29T08:14:35;4.55;;;1.45;;
29240;SDS011;16268;49.880;8.648;2022-12-29T08:17:01;6.38;;;1.80;;
29240;SDS011;16268;49.880;8.648;2022-12-29T08:19:26;5.75;;;1.67;;
29240;SDS011;16268;49.880;8.648;2022-12-29T08:21:52;6.25;;;1.90;;
29240;SDS011;16268;49.880;8.648;2022-12-29T08:24:18;3.67;;;1.40;;
29240;SDS011;16268;49.880;8.648;2022-12-29T08:26:44;5.35;;;1.63;;
29240;SDS011;16268;49.880;8.648;2022-12-29T08:29:09;5.72;;;1.67;;
29240;SDS011;16268;49.880;8.648;2022-12-29T08:31:35;3.88;;;1.55;;
29240;SDS011;16268;49.880;8.648;2022-12-29T08:34:00;4.53;;;1.58;;
29240;SDS011;16268;49.880;8.648;2022-12-29T08:36:28;3.38;;;1.42;;
29240;SDS011;16268;49.880;8.648;2022-12-29T08:38:53;4.22;;;1.60;;
29240;SDS011;16268;49.880;8.648;2022-12-29T08:41:19;5.55;;;2.28;;
29240;SDS011;16268;49.880;8.648;2022-12-29T08:43:48;4.43;;;1.73;;
29240;SDS011;16268;49.880;8.648;2022-12-29T08:46:14;5.15;;;1.75;;
29240;SDS011;16268;49.880;8.648;2022-12-29T08:48:40;4.80;;;1.70;;
29240;SDS011;16268;49.880;8.648;2022-12-29T08:51:06;6.25;;;1.88;;
29240;SDS011;16268;49.880;8.648;2022-12-29T08:53:32;6.18;;;1.80;;
29240;SDS011;16268;49.880;8.648;2022-12-29T08:55:59;5.05;;;1.80;;
29240;SDS011;16268;49.880;8.648;2022-12-29T08:58:25;4.60;;;1.67;;
29240;SDS011;16268;49.880;8.648;2022-12-29T09:00:52;7.53;;;1.90;;
29240;SDS011;16268;49.880;8.648;2022-12-29T09:03:19;8.68;;;2.08;;
29240;SDS011;16268;49.880;8.648;2022-12-29T09:05:47;4.65;;;1.73;;
29240;SDS011;16268;49.880;8.648;2022-12-29T09:08:14;4.32;;;1.83;;
29240;SDS011;16268;49.880;8.648;2022-12-29T09:10:40;5.28;;;1.80;;
29240;SDS011;16268;49.880;8.648;2022-12-29T09:13:05;6.13;;;1.85;;
29240;SDS011;16268;49.880;8.648;2022-12-29T09:15:31;4.28;;;1.80;;
29240;SDS011;16268;49.880;8.648;2022-12-29T09:17:56;5.57;;;1.80;;
29240;SDS011;16268;49.880;8.648;2022-12-29T09:20:22;6.38;;;2.03;;
29240;SDS011;16268;49.880;8.648;2022-12-29T09:22:47;5.20;;;1.98;;
29240;SDS011;16268;49.880;8.648;2022-12-29T09:25:13;4.40;;;1.73;;
29240;SDS011;16268;49.880;8.648;2022-12-29T09:27:39;4.22;;;1.60;;
29240;SDS011;16268;49.880;8.648;2022-12-29T09:30:06;7.65;;;2.00;;
29240;SDS011;16268;49.880;8.648;2022-12-29T09:32:34;6.13;;;1.77;;
29240;SDS011;16268;49.880;8.648;2022-12-29T09:35:00;4.40;;;1.90;;
29240;SDS011;16268;49.880;8.648;2022-12-29T09:37:26;4.40;;;2.00;;
29240;SDS011;16268;49.880;8.648;2022-12-29T09:39:51;5.63;;;1.83;;
29240;SDS011;16268;49.880;8.648;2022-12-29T09:42:34;4.72;;;2.00;;
29240;SDS011;16268;49.880;8.648;2022-12-29T09:47:34;7.38;;;2.15;;
29240;SDS011;16268;49.880;8.648;2022-12-29T09:50:04;4.95;;;1.80;;
29240;SDS011;16268;49.880;8.648;2022-12-29T09:52:37;3.95;;;1.55;;
29240;SDS011;16268;49.880;8.648;2022-12-29T09:55:13;6.50;;;1.98;;
29240;SDS011;16268;49.880;8.648;2022-12-29T09:57:56;4.97;;;1.92;;
29240;SDS011;16268;49.880;8.648;2022-12-29T10:00:35;4.20;;;1.75;;
29240;SDS011;16268;49.880;8.648;2022-12-29T10:03:14;5.53;;;1.93;;
29240;SDS011;16268;49.880;8.648;2022-12-29T10:05:46;4.90;;;1.87;;
29240;SDS011;16268;49.880;8.648;2022-12-29T10:11:14;4.85;;;1.70;;
29240;SDS011;16268;49.880;8.648;2022-12-29T10:14:15;5.80;;;1.85;;
29240;SDS011;16268;49.880;8.648;2022-12-29T10:17:18;5.55;;;1.75;;
29240;SDS011;16268;49.880;8.648;2022-12-29T10:19:55;3.65;;;2.00;;
29240;SDS011;16268;49.880;8.648;2022-12-29T10:22:38;4.55;;;2.03;;
29240;SDS011;16268;49.880;8.648;2022-12-29T10:25:21;5.28;;;1.90;;
29240;SDS011;16268;49.880;8.648;2022-12-29T10:27:50;5.47;;;1.90;;
29240;SDS011;16268;49.880;8.648;2022-12-29T10:30:17;6.55;;;2.10;;
29240;SDS011;16268;49.880;8.648;2022-12-29T10:32:56;5.82;;;1.92;;
29240;SDS011;16268;49.880;8.648;2022-12-29T10:35:32;5.70;;;1.70;;
29240;SDS011;16268;49.880;8.648;2022-12-29T10:40:47;4.55;;;1.60;;
29240;SDS011;16268;49.880;8.648;2022-12-29T10:45:54;5.32;;;1.90;;
29240;SDS011;16268;49.880;8.648;2022-12-29T10:48:30;4.88;;;2.08;;
29240;SDS011;16268;49.880;8.648;2022-12-29T10:50:59;6.75;;;2.05;;
29240;SDS011;16268;49.880;8.648;2022-12-29T10:53:35;4.30;;;1.90;;
29240;SDS011;16268;49.880;8.648;2022-12-29T10:56:13;5.13;;;2.30;;
29240;SDS011;16268;49.880;8.648;2022-12-29T10:58:46;5.47;;;2.40;;
29240;SDS011;16268;49.880;8.648;2022-12-29T11:01:14;6.90;;;2.10;;
29240;SDS011;16268;49.880;8.648;2022-12-29T11:03:44;2.92;;;1.58;;
29240;SDS011;16268;49.880;8.648;2022-12-29T11:06:15;5.72;;;2.15;;
29240;SDS011;16268;49.880;8.648;2022-12-29T11:11:53;5.22;;;1.60;;
29240;SDS011;16268;49.880;8.648;2022-12-29T11:14:26;4.55;;;1.80;;
29240;SDS011;16268;49.880;8.648;2022-12-29T11:16:58;3.75;;;1.40;;
29240;SDS011;16268;49.880;8.648;2022-12-29T11:19:29;4.22;;;1.67;;
29240;SDS011;16268;49.880;8.648;2022-12-29T11:24:55;3.58;;;1.20;;
29240;SDS011;16268;49.880;8.648;2022-12-29T11:27:35;3.03;;;1.10;;
29240;SDS011;16268;49.880;8.648;2022-12-29T11:30:00;3.92;;;1.60;;
29240;SDS011;16268;49.880;8.648;2022-12-29T11:32:27;2.90;;;1.20;;
29240;SDS011;16268;49.880;8.648;2022-12-29T11:34:57;2.25;;;0.98;;
29240;SDS011;16268;49.880;8.648;2022-12-29T11:37:30;4.38;;;1.17;;
29240;SDS011;16268;49.880;8.648;2022-12-29T11:39:59;4.50;;;1.25;;
29240;SDS011;16268;49.880;8.648;2022-12-29T11:42:36;3.08;;;0.85;;
29240;SDS011;16268;49.880;8.648;2022-12-29T11:45:05;2.90;;;1.17;;
29240;SDS011;16268;49.880;8.648;2022-12-29T11:47:52;3.63;;;1.13;;
29240;SDS011;16268;49.880;8.648;2022-12-29T11:50:26;3.22;;;1.30;;
29240;SDS011;16268;49.880;8.648;2022-12-29T11:53:06;5.15;;;1.50;;
29240;SDS011;16268;49.880;8.648;2022-12-29T11:55:41;3.92;;;1.50;;
29240;SDS011;16268;49.880;8.648;2022-12-29T11:58:16;3.17;;;1.17;;
29240;SDS011;16268;49.880;8.648;2022-12-29T12:00:42;3.63;;;1.20;;
29240;SDS011;16268;49.880;8.648;2022-12-29T12:03:13;3.33;;;0.98;;
29240;SDS011;16268;49.880;8.648;2022-12-29T12:05:55;3.33;;;1.10;;
29240;SDS011;16268;49.880;8.648;2022-12-29T12:13:36;3.30;;;1.20;;
29240;SDS011;16268;49.880;8.648;2022-12-29T12:16:09;4.80;;;1.55;;
29240;SDS011;16268;49.880;8.648;2022-12-29T12:18:50;4.45;;;1.60;;
29240;SDS011;16268;49.880;8.648;2022-12-29T12:21:37;5.43;;;2.22;;
29240;SDS011;16268;49.880;8.648;2022-12-29T12:27:09;6.65;;;2.50;;
29240;SDS011;16268;49.880;8.648;2022-12-29T12:29:58;4.18;;;1.75;;
29240;SDS011;16268;49.880;8.648;2022-12-29T12:32:36;4.70;;;1.90;;
29240;SDS011;16268;49.880;8.648;2022-12-29T12:35:21;4.97;;;1.92;;
29240;SDS011;16268;49.880;8.648;2022-12-29T12:41:06;3.33;;;1.45;;
29240;SDS011;16268;49.880;8.648;2022-12-29T12:43:42;4.32;;;1.40;;
29240;SDS011;16268;49.880;8.648;2022-12-29T12:49:32;4.47;;;1.27;;
29240;SDS011;16268;49.880;8.648;2022-12-29T12:52:28;5.13;;;1.45;;
29240;SDS011;16268;49.880;8.648;2022-12-29T12:55:15;4.35;;;1.20;;
29240;SDS011;16268;49.880;8.648;2022-12-29T13:00:43;3.78;;;1.20;;
29240;SDS011;16268;49.880;8.648;2022-12-29T13:03:27;3.42;;;1.00;;
29240;SDS011;16268;49.880;8.648;2022-12-29T13:09:03;7.03;;;4.28;;
29240;SDS011;16268;49.880;8.648;2022-12-29T13:17:21;4.78;;;1.15;;
29240;SDS011;16268;49.880;8.648;2022-12-29T13:23:11;3.90;;;1.50;;
29240;SDS011;16268;49.880;8.648;2022-12-29T13:28:54;3.22;;;1.30;;
29240;SDS011;16268;49.880;8.648;2022-12-29T13:34:14;4.63;;;1.40;;
29240;SDS011;16268;49.880;8.648;2022-12-29T13:36:58;6.15;;;1.50;;
29240;SDS011;16268;49.880;8.648;2022-12-29T13:41:56;6.63;;;1.50;;
29240;SDS011;16268;49.880;8.648;2022-12-29T13:46:59;5.32;;;1.52;;
29240;SDS011;16268;49.880;8.648;2022-12-29T13:49:27;5.00;;;1.73;;
29240;SDS011;16268;49.880;8.648;2022-12-29T13:51:58;6.82;;;1.48;;
29240;SDS011;16268;49.880;8.648;2022-12-29T13:57:10;6.20;;;1.42;;
29240;SDS011;16268;49.880;8.648;2022-12-29T13:59:56;5.68;;;1.30;;
29240;SDS011;16268;49.880;8.648;2022-12-29T14:02:31;5.47;;;1.23;;
29240;SDS011;16268;49.880;8.648;2022-12-29T14:05:26;5.18;;;1.25;;
29240;SDS011;16268;49.880;8.648;2022-12-29T14:07:48;4.03;;;1.30;;
29240;SDS011;16268;49.880;8.648;2022-12-29T14:13:04;6.07;;;2.00;;
29240;SDS011;16268;49.880;8.648;2022-12-29T14:15:38;6.15;;;1.30;;
29240;SDS011;16268;49.880;8.648;2022-12-29T14:18:21;3.97;;;1.50;;
29240;SDS011;16268;49.880;8.648;2022-12-29T14:20:53;4.93;;;1.30;;
29240;SDS011;16268;49.880;8.648;2022-12-29T14:23:26;6.53;;;1.48;;
29240;SDS011;16268;49.880;8.648;2022-12-29T14:25:56;4.82;;;1.48;;
29240;SDS011;16268;49.880;8.648;2022-12-29T14:28:23;4.53;;;1.30;;
29240;SDS011;16268;49.880;8.648;2022-12-29T14:37:03;3.65;;;0.93;;
29240;SDS011;16268;49.880;8.648;2022-12-29T14:39:41;4.00;;;1.35;;
29240;SDS011;16268;49.880;8.648;2022-12-29T14:44:45;3.10;;;1.02;;
29240;SDS011;16268;49.880;8.648;2022-12-29T14:47:11;4.47;;;1.30;;
29240;SDS011;16268;49.880;8.648;2022-12-29T14:50:02;3.75;;;1.10;;
29240;SDS011;16268;49.880;8.648;2022-12-29T14:52:30;3.78;;;1.10;;
29240;SDS011;16268;49.880;8.648;2022-12-29T14:54:57;3.25;;;1.00;;
29240;SDS011;16268;49.880;8.648;2022-12-29T14:57:39;3.28;;;1.02;;
29240;SDS011;16268;49.880;8.648;2022-12-29T15:02:39;4.30;;;1.40;;
29240;SDS011;16268;49.880;8.648;2022-12-29T15:05:29;3.58;;;1.20;;
29240;SDS011;16268;49.880;8.648;2022-12-29T15:10:24;4.90;;;1.20;;
29240;SDS011;16268;49.880;8.648;2022-12-29T15:13:00;5.50;;;1.67;;
29240;SDS011;16268;49.880;8.648;2022-12-29T15:15:35;4.55;;;1.05;;
29240;SDS011;16268;49.880;8.648;2022-12-29T15:18:12;5.43;;;1.27;;
29240;SDS011;16268;49.880;8.648;2022-12-29T15:20:50;4.30;;;1.30;;
29240;SDS011;16268;49.880;8.648;2022-12-29T15:23:23;3.25;;;1.20;;
29240;SDS011;16268;49.880;8.648;2022-12-29T15:25:52;3.72;;;1.17;;
29240;SDS011;16268;49.880;8.648;2022-12-29T15:28:23;6.05;;;1.20;;
29240;SDS011;16268;49.880;8.648;2022-12-29T15:30:53;3.35;;;0.90;;
29240;SDS011;16268;49.880;8.648;2022-12-29T15:33:24;4.75;;;1.33;;
29240;SDS011;16268;49.880;8.648;2022-12-29T15:35:52;3.97;;;1.20;;
29240;SDS011;16268;49.880;8.648;2022-12-29T15:38:27;4.72;;;1.45;;
29240;SDS011;16268;49.880;8.648;2022-12-29T15:40:54;3.40;;;1.00;;
29240;SDS011;16268;49.880;8.648;2022-12-29T15:46:08;4.97;;;1.15;;
29240;SDS011;16268;49.880;8.648;2022-12-29T15:48:36;3.65;;;1.00;;
29240;SDS011;16268;49.880;8.648;2022-12-29T15:51:11;5.20;;;1.10;;
29240;SDS011;16268;49.880;8.648;2022-12-29T15:53:47;4.00;;;1.00;;
29240;SDS011;16268;49.880;8.648;2022-12-29T15:56:15;7.60;;;1.45;;
29240;SDS011;16268;49.880;8.648;2022-12-29T15:58:51;6.95;;;1.88;;
29240;SDS011;16268;49.880;8.648;2022-12-29T16:01:28;5.47;;;1.90;;
29240;SDS011;16268;49.880;8.648;2022-12-29T16:03:55;4.65;;;1.77;;
29240;SDS011;16268;49.880;8.648;2022-12-29T16:06:27;5.28;;;1.90;;
29240;SDS011;16268;49.880;8.648;2022-12-29T16:08:57;6.57;;;1.70;;
29240;SDS011;16268;49.880;8.648;2022-12-29T16:11:38;4.18;;;1.50;;
29240;SDS011;16268;49.880;8.648;2022-12-29T16:14:09;4.03;;;1.23;;
29240;SDS011;16268;49.880;8.648;2022-12-29T16:16:40;5.07;;;1.48;;
29240;SDS011;16268;49.880;8.648;2022-12-29T16:19:14;3.72;;;1.00;;
29240;SDS011;16268;49.880;8.648;2022-12-29T16:21:46;5.03;;;1.35;;
29240;SDS011;16268;49.880;8.648;2022-12-29T16:24:13;6.00;;;1.40;;
29240;SDS011;16268;49.880;8.648;2022-12-29T16:26:51;4.93;;;1.20;;
29240;SDS011;16268;49.880;8.648;2022-12-29T16:29:32;6.95;;;1.30;;
29240;SDS011;16268;49.880;8.648;2022-12-29T16:31:59;4.38;;;1.40;;
29240;SDS011;16268;49.880;8.648;2022-12-29T16:34:32;8.52;;;1.75;;
29240;SDS011;16268;49.880;8.648;2022-12-29T16:39:53;5.32;;;1.42;;
29240;SDS011;16268;49.880;8.648;2022-12-29T16:45:19;4.70;;;1.73;;
29240;SDS011;16268;49.880;8.648;2022-12-29T16:50:31;6.82;;;1.70;;
29240;SDS011;16268;49.880;8.648;2022-12-29T16:52:58;5.40;;;1.48;;
29240;SDS011;16268;49.880;8.648;2022-12-29T16:55:24;4.97;;;1.40;;
29240;SDS011;16268;49.880;8.648;2022-12-29T16:57:50;5.82;;;1.45;;
29240;SDS011;16268;49.880;8.648;2022-12-29T17:00:22;4.90;;;1.60;;
29240;SDS011;16268;49.880;8.648;2022-12-29T17:02:49;5.90;;;1.25;;
29240;SDS011;16268;49.880;8.648;2022-12-29T17:05:17;4.90;;;1.30;;
29240;SDS011;16268;49.880;8.648;2022-12-29T17:07:44;6.45;;;1.42;;
29240;SDS011;16268;49.880;8.648;2022-12-29T17:10:10;6.18;;;2.20;;
29240;SDS011;16268;49.880;8.648;2022-12-29T17:12:38;7.93;;;2.15;;